createdAt,value
2023-02-28T00:01:26.290Z,7.47
2023-02-28T00:03:55.620Z,7.41
2023-02-28T00:06:23.629Z,6.88
2023-02-28T00:08:51.395Z,7.11
2023-02-28T00:11:20.376Z,7.22
2023-02-28T00:13:49.281Z,7.14
2023-02-28T00:16:19.373Z,7.18
2023-02-28T00:18:48.365Z,7.25
2023-02-28T00:21:18.857Z,7.00
2023-02-28T00:23:46.985Z,7.27
2023-02-28T00:26:15.032Z,7.28
2023-02-28T00:28:46.485Z,7.06
2023-02-28T00:31:14.338Z,7.10
2023-02-28T00:33:42.277Z,7.18
2023-02-28T00:36:12.761Z,7.26
2023-02-28T00:38:42.985Z,7.55
2023-02-28T00:41:11.287Z,7.69
2023-02-28T00:43:40.451Z,7.75
2023-02-28T00:46:09.142Z,7.77
2023-02-28T00:48:37.509Z,7.91
2023-02-28T00:51:06.094Z,7.35
2023-02-28T00:53:34.489Z,6.92
2023-02-28T00:56:04.590Z,6.89
2023-02-28T00:58:34.413Z,7.37
2023-02-28T01:01:02.377Z,7.11
2023-02-28T01:03:30.714Z,6.79
2023-02-28T01:06:00.536Z,6.83
2023-02-28T01:08:28.596Z,6.90
2023-02-28T01:10:56.742Z,6.88
2023-02-28T01:13:26.496Z,6.68
2023-02-28T01:15:58.048Z,6.99
2023-02-28T01:18:26.591Z,6.88
2023-02-28T01:20:55.074Z,6.59
2023-02-28T01:23:24.724Z,6.54
2023-02-28T01:25:52.878Z,6.65
2023-02-28T01:28:21.301Z,6.54
2023-02-28T01:30:53.850Z,6.25
2023-02-28T01:33:22.033Z,6.36
2023-02-28T01:35:49.933Z,6.41
2023-02-28T01:38:22.851Z,6.21
2023-02-28T01:40:51.764Z,6.50
2023-02-28T01:43:25.444Z,6.73
2023-02-28T01:45:55.745Z,6.56
2023-02-28T01:48:27.879Z,6.62
2023-02-28T01:51:00.874Z,6.39
2023-02-28T01:53:35.851Z,6.65
2023-02-28T01:56:08.453Z,7.14
2023-02-28T01:58:38.756Z,6.88
2023-02-28T02:01:08.150Z,7.23
2023-02-28T02:03:38.258Z,6.96
2023-02-28T02:06:06.727Z,6.99
2023-02-28T02:08:34.646Z,6.76
2023-02-28T02:11:04.389Z,6.82
2023-02-28T02:14:06.611Z,6.76
2023-02-28T02:16:51.223Z,6.83
2023-02-28T02:19:48.210Z,6.67
2023-02-28T02:22:42.054Z,6.56
2023-02-28T02:25:35.154Z,6.50
2023-02-28T02:28:36.271Z,6.44
2023-02-28T02:31:31.084Z,6.18
2023-02-28T02:34:26.270Z,6.36
2023-02-28T02:37:02.791Z,6.27
2023-02-28T02:39:36.448Z,6.39
2023-02-28T02:42:13.878Z,5.96
2023-02-28T02:44:46.475Z,5.96
2023-02-28T02:47:17.858Z,6.15
2023-02-28T02:49:52.405Z,6.41
2023-02-28T02:52:25.287Z,6.26
2023-02-28T02:54:57.509Z,6.00
2023-02-28T02:57:31.680Z,6.01
2023-02-28T03:00:05.381Z,5.90
2023-02-28T03:02:35.226Z,6.05
2023-02-28T03:05:08.538Z,6.67
2023-02-28T03:07:36.436Z,6.73
2023-02-28T03:10:04.938Z,6.72
2023-02-28T03:12:42.418Z,6.77
2023-02-28T03:15:19.531Z,6.84
2023-02-28T03:17:59.992Z,6.39
2023-02-28T03:20:37.571Z,6.03
2023-02-28T03:23:15.343Z,6.10
2023-02-28T03:25:54.673Z,5.94
2023-02-28T03:28:32.837Z,6.00
2023-02-28T03:31:10.117Z,6.12
2023-02-28T03:33:43.001Z,5.99
2023-02-28T03:36:15.926Z,5.64
2023-02-28T03:38:48.248Z,5.56
2023-02-28T03:41:19.608Z,5.40
2023-02-28T03:43:53.014Z,5.42
2023-02-28T03:46:38.180Z,5.53
2023-02-28T03:49:13.339Z,5.52
2023-02-28T03:51:44.872Z,5.55
2023-02-28T03:54:18.367Z,5.64
2023-02-28T03:56:54.806Z,5.72
2023-02-28T03:59:28.901Z,5.59
2023-02-28T04:01:59.328Z,5.61
2023-02-28T04:04:27.910Z,5.74
2023-02-28T04:07:03.937Z,5.58
2023-02-28T04:09:31.736Z,5.78
2023-02-28T04:11:59.637Z,5.87
2023-02-28T04:14:27.692Z,5.95
2023-02-28T04:16:55.802Z,5.69
2023-02-28T04:19:23.684Z,5.75
2023-02-28T04:21:53.646Z,5.63
2023-02-28T04:24:24.400Z,5.59
2023-02-28T04:26:54.091Z,5.58
2023-02-28T04:29:23.804Z,5.73
2023-02-28T04:31:52.326Z,5.52
2023-02-28T04:34:20.883Z,5.32
2023-02-28T04:36:59.644Z,5.36
2023-02-28T04:39:37.118Z,4.99
2023-02-28T04:42:05.070Z,5.42
2023-02-28T04:44:33.546Z,5.40
2023-02-28T04:47:01.503Z,5.36
2023-02-28T04:49:29.584Z,5.36
2023-02-28T04:51:57.754Z,4.82
2023-02-28T04:54:25.711Z,4.51
2023-02-28T04:56:55.745Z,4.44
2023-02-28T04:59:23.680Z,4.85
2023-02-28T05:01:51.683Z,4.96
2023-02-28T05:04:19.694Z,4.99
2023-02-28T05:06:47.892Z,4.71
2023-02-28T05:09:16.142Z,4.97
2023-02-28T05:11:44.219Z,5.07
2023-02-28T05:14:15.824Z,4.80
2023-02-28T05:16:43.955Z,4.62
2023-02-28T05:19:12.463Z,5.20
2023-02-28T05:21:42.368Z,4.73
2023-02-28T05:24:13.396Z,4.99
2023-02-28T05:26:43.682Z,4.73
2023-02-28T05:29:13.144Z,4.88
2023-02-28T05:31:41.212Z,5.20
2023-02-28T05:34:09.302Z,5.08
2023-02-28T05:36:39.212Z,3.11
2023-02-28T05:39:08.304Z,3.71
2023-02-28T05:41:36.256Z,4.35
2023-02-28T05:44:04.434Z,3.88
2023-02-28T05:46:33.717Z,4.65
2023-02-28T05:49:01.921Z,4.00
2023-02-28T05:51:30.268Z,4.00
2023-02-28T05:54:02.188Z,4.52
2023-02-28T05:56:30.680Z,4.38
2023-02-28T05:58:58.620Z,4.64
2023-02-28T06:01:35.159Z,4.62
2023-02-28T06:04:04.197Z,4.79
2023-02-28T06:06:32.990Z,4.73
2023-02-28T06:09:02.200Z,4.77
2023-02-28T06:11:30.359Z,4.97
2023-02-28T06:14:00.619Z,4.53
2023-02-28T06:16:29.271Z,4.07
2023-02-28T06:19:00.115Z,4.55
2023-02-28T06:21:29.707Z,4.52
2023-02-28T06:23:59.551Z,4.97
2023-02-28T06:26:27.840Z,4.73
2023-02-28T06:28:56.556Z,4.85
2023-02-28T06:31:26.844Z,4.85
2023-02-28T06:33:54.899Z,5.00
2023-02-28T06:36:24.535Z,5.26
2023-02-28T06:38:55.722Z,5.47
2023-02-28T06:41:24.838Z,5.24
2023-02-28T06:43:53.182Z,5.17
2023-02-28T06:46:21.660Z,5.31
2023-02-28T06:48:49.620Z,5.62
2023-02-28T06:51:21.273Z,5.66
2023-02-28T06:53:50.592Z,5.69
2023-02-28T06:56:19.477Z,5.92
2023-02-28T06:58:49.354Z,6.12
2023-02-28T07:01:17.627Z,6.05
2023-02-28T07:03:45.534Z,5.99
2023-02-28T07:06:14.180Z,6.16
2023-02-28T07:08:42.345Z,6.16
2023-02-28T07:11:11.688Z,5.90
2023-02-28T07:13:39.655Z,6.47
2023-02-28T07:16:09.917Z,6.07
2023-02-28T07:18:38.283Z,5.91
2023-02-28T07:21:10.528Z,6.02
2023-02-28T07:23:40.083Z,5.60
2023-02-28T07:26:08.924Z,5.14
2023-02-28T07:28:39.151Z,5.70
2023-02-28T07:31:08.186Z,5.52
2023-02-28T07:33:38.400Z,5.76
2023-02-28T07:36:09.406Z,5.79
2023-02-28T07:38:38.580Z,5.41
2023-02-28T07:41:06.883Z,5.44
2023-02-28T07:43:34.897Z,6.16
2023-02-28T07:46:06.078Z,5.94
2023-02-28T07:48:34.487Z,5.53
2023-02-28T07:51:03.509Z,5.91
2023-02-28T07:53:32.247Z,5.57
2023-02-28T07:56:01.844Z,5.50
2023-02-28T07:58:30.963Z,6.07
2023-02-28T08:00:59.360Z,6.02
2023-02-28T08:03:28.627Z,5.57
2023-02-28T08:05:56.805Z,6.17
2023-02-28T08:08:24.918Z,6.44
2023-02-28T08:10:53.029Z,6.38
2023-02-28T08:13:20.811Z,6.68
2023-02-28T08:15:48.720Z,6.48
2023-02-28T08:18:16.612Z,6.74
2023-02-28T08:20:46.036Z,6.96
2023-02-28T08:23:14.328Z,6.17
2023-02-28T08:25:42.667Z,6.31
2023-02-28T08:28:10.722Z,6.01
2023-02-28T08:30:42.608Z,6.37
2023-02-28T08:33:10.883Z,6.93
2023-02-28T08:35:39.125Z,6.86
2023-02-28T08:38:08.590Z,6.97
2023-02-28T08:40:36.468Z,6.95
2023-02-28T08:43:05.110Z,7.60
2023-02-28T08:45:33.071Z,7.74
2023-02-28T08:48:02.812Z,6.88
2023-02-28T08:50:31.192Z,6.53
2023-02-28T08:53:02.463Z,6.29
2023-02-28T08:55:31.981Z,6.71
2023-02-28T08:58:00.432Z,7.06
2023-02-28T09:00:28.477Z,7.13
2023-02-28T09:02:56.573Z,7.08
2023-02-28T09:05:24.490Z,7.51
2023-02-28T09:07:52.403Z,7.45
2023-02-28T09:10:20.530Z,7.22
2023-02-28T09:12:49.984Z,7.72
2023-02-28T09:15:18.117Z,7.35
2023-02-28T09:17:47.218Z,6.88
2023-02-28T09:20:18.100Z,7.25
2023-02-28T09:22:46.074Z,7.92
2023-02-28T09:25:13.943Z,7.87
2023-02-28T09:27:42.413Z,8.24
2023-02-28T09:30:14.371Z,8.14
2023-02-28T09:32:42.286Z,8.33
2023-02-28T09:35:14.334Z,8.90
2023-02-28T09:37:42.291Z,8.61
2023-02-28T09:40:12.136Z,9.20
2023-02-28T09:42:41.186Z,8.62
2023-02-28T09:45:28.919Z,9.19
2023-02-28T09:48:01.220Z,8.96
2023-02-28T09:50:35.716Z,9.16
2023-02-28T09:53:08.258Z,9.52
2023-02-28T09:55:47.063Z,8.96
2023-02-28T09:58:23.148Z,7.84
2023-02-28T10:01:00.217Z,7.95
2023-02-28T10:03:35.387Z,9.08
2023-02-28T10:06:14.355Z,8.84
2023-02-28T10:08:49.662Z,8.07
2023-02-28T10:11:21.645Z,8.32
2023-02-28T10:13:56.935Z,9.29
2023-02-28T10:16:32.209Z,9.16
2023-02-28T10:19:06.550Z,9.19
2023-02-28T10:21:40.540Z,9.01
2023-02-28T10:24:21.961Z,9.13
2023-02-28T10:26:50.814Z,9.11
2023-02-28T10:29:18.722Z,9.67
2023-02-28T10:31:48.434Z,9.98
2023-02-28T10:34:16.569Z,10.49
2023-02-28T10:36:45.774Z,10.25
2023-02-28T10:39:39.848Z,9.66
2023-02-28T10:42:22.042Z,8.39
2023-02-28T10:44:50.203Z,8.44
2023-02-28T10:47:21.633Z,9.23
2023-02-28T10:49:50.759Z,9.93
2023-02-28T10:52:38.956Z,8.81
2023-02-28T10:55:22.013Z,9.41
2023-02-28T10:57:49.999Z,9.34
2023-02-28T11:00:22.494Z,9.47
2023-02-28T11:02:51.785Z,9.22
2023-02-28T11:05:29.047Z,9.81
2023-02-28T11:07:58.991Z,9.29
2023-02-28T11:10:31.944Z,8.89
2023-02-28T11:13:01.360Z,9.64
2023-02-28T11:15:31.106Z,9.96
2023-02-28T11:18:03.474Z,9.45
2023-02-28T11:20:34.590Z,9.61
2023-02-28T11:23:05.241Z,9.93
2023-02-28T11:25:35.670Z,9.05
2023-02-28T11:28:07.600Z,8.89
2023-02-28T11:30:38.840Z,10.20
2023-02-28T11:33:30.355Z,10.12
2023-02-28T11:36:02.949Z,10.34
2023-02-28T11:38:31.139Z,10.31
2023-02-28T11:41:14.181Z,10.70
2023-02-28T11:44:01.291Z,9.41
2023-02-28T11:46:36.595Z,9.62
2023-02-28T11:49:22.986Z,9.39
2023-02-28T11:51:57.207Z,9.29
2023-02-28T11:54:37.789Z,9.55
2023-02-28T11:57:18.191Z,10.79
2023-02-28T11:59:58.605Z,9.30
2023-02-28T12:02:30.828Z,9.45
2023-02-28T12:05:19.296Z,10.39
2023-02-28T12:07:58.751Z,10.01
2023-02-28T12:10:29.020Z,10.06
2023-02-28T12:13:09.615Z,9.52
2023-02-28T12:16:06.604Z,8.98
2023-02-28T12:18:49.349Z,9.46
2023-02-28T12:21:30.746Z,10.18
2023-02-28T12:24:31.178Z,10.01
2023-02-28T12:27:02.922Z,10.74
2023-02-28T12:29:33.127Z,10.32
2023-02-28T12:32:06.785Z,10.16
2023-02-28T12:34:39.677Z,10.09
2023-02-28T12:37:17.365Z,11.12
2023-02-28T12:39:51.161Z,10.31
2023-02-28T12:42:25.907Z,9.68
2023-02-28T12:44:59.029Z,10.03
2023-02-28T12:47:27.487Z,10.44
2023-02-28T12:49:59.763Z,10.53
2023-02-28T12:52:39.047Z,10.05
2023-02-28T12:55:15.811Z,9.82
2023-02-28T12:57:50.900Z,9.46
2023-02-28T13:00:23.612Z,9.85
2023-02-28T13:03:24.842Z,11.23
2023-02-28T13:06:10.364Z,10.23
2023-02-28T13:09:03.096Z,10.42
2023-02-28T13:11:42.398Z,11.27
2023-02-28T13:14:24.283Z,11.42
2023-02-28T13:17:02.197Z,11.00
2023-02-28T13:19:33.614Z,11.03
2023-02-28T13:22:02.759Z,11.29
2023-02-28T13:24:48.286Z,11.83
2023-02-28T13:27:35.973Z,11.56
2023-02-28T13:30:44.597Z,11.85
2023-02-28T13:33:28.153Z,11.47
2023-02-28T13:36:10.120Z,12.15
2023-02-28T13:38:43.594Z,11.44
2023-02-28T13:41:49.917Z,10.44
2023-02-28T13:44:31.562Z,8.93
2023-02-28T13:47:34.480Z,10.43
2023-02-28T13:50:25.380Z,10.09
2023-02-28T13:53:37.656Z,10.95
2023-02-28T13:56:12.176Z,10.68
2023-02-28T13:58:50.525Z,10.40
2023-02-28T14:01:40.304Z,10.59
2023-02-28T14:04:28.900Z,11.16
2023-02-28T14:06:59.501Z,9.91
2023-02-28T14:09:34.464Z,10.67
2023-02-28T14:12:35.727Z,10.20
2023-02-28T14:15:06.488Z,10.73
2023-02-28T14:17:34.793Z,10.61
2023-02-28T14:20:04.240Z,10.63
2023-02-28T14:22:52.688Z,10.34
2023-02-28T14:25:32.061Z,10.01
2023-02-28T14:28:12.316Z,10.52
2023-02-28T14:30:57.542Z,10.94
2023-02-28T14:33:50.820Z,11.22
2023-02-28T14:36:25.502Z,11.39
2023-02-28T14:38:57.411Z,10.98
2023-02-28T14:41:31.686Z,10.77
2023-02-28T14:44:02.569Z,10.94
2023-02-28T14:47:15.918Z,9.99
2023-02-28T14:50:03.005Z,9.98
2023-02-28T14:53:02.411Z,10.40
2023-02-28T14:56:31.438Z,10.15
2023-02-28T15:02:43.329Z,10.27
2023-02-28T15:05:44.312Z,10.62
2023-02-28T15:08:38.650Z,10.32
2023-02-28T15:12:04.165Z,10.64
2023-02-28T15:15:15.840Z,10.83
2023-02-28T15:18:08.645Z,10.82
2023-02-28T15:21:17.770Z,10.77
2023-02-28T15:26:54.670Z,10.08
2023-02-28T15:29:39.732Z,10.63
2023-02-28T15:36:46.147Z,10.02
2023-02-28T15:42:06.449Z,10.89
2023-02-28T15:59:12.495Z,10.45
2023-02-28T16:06:44.024Z,9.51
2023-02-28T16:15:00.966Z,11.13
2023-02-28T16:25:36.340Z,11.43
2023-02-28T16:48:52.012Z,10.51
2023-02-28T16:51:48.317Z,10.66
2023-02-28T16:55:46.279Z,9.68
2023-02-28T16:58:24.909Z,9.42
2023-02-28T17:01:52.875Z,9.93
2023-02-28T17:12:00.346Z,10.16
2023-02-28T17:15:10.324Z,9.95
2023-02-28T17:18:32.955Z,9.45
2023-02-28T17:38:24.800Z,9.65
2023-02-28T17:42:25.159Z,9.88
2023-02-28T17:50:11.775Z,9.93
2023-02-28T18:04:58.778Z,9.73
2023-02-28T18:19:20.260Z,9.12
2023-02-28T18:26:17.361Z,9.26
2023-02-28T18:33:21.301Z,9.12
2023-02-28T18:40:09.617Z,8.81
2023-02-28T18:43:16.514Z,8.70
2023-02-28T18:48:30.796Z,8.47
2023-02-28T18:54:15.000Z,8.20
2023-02-28T18:57:55.175Z,8.25
2023-02-28T19:08:28.633Z,8.15
2023-02-28T19:11:48.553Z,8.09
2023-02-28T19:14:18.824Z,7.90
2023-02-28T19:16:47.337Z,7.76
2023-02-28T19:19:17.483Z,7.60
2023-02-28T19:21:45.815Z,7.90
2023-02-28T19:24:13.932Z,8.15
2023-02-28T19:26:43.538Z,8.17
2023-02-28T19:29:13.372Z,7.81
2023-02-28T19:31:43.713Z,7.75
2023-02-28T19:34:24.363Z,7.69
2023-02-28T19:36:52.415Z,7.71
2023-02-28T19:39:20.798Z,7.99
2023-02-28T19:41:56.860Z,7.79
2023-02-28T19:44:24.837Z,7.99
2023-02-28T19:46:56.315Z,7.80
2023-02-28T19:49:25.997Z,7.89
2023-02-28T19:51:56.735Z,7.91
2023-02-28T19:54:25.822Z,8.18
2023-02-28T19:56:57.578Z,8.10
2023-02-28T19:59:35.859Z,7.72
2023-02-28T20:02:15.882Z,7.49
2023-02-28T20:04:47.492Z,7.40
2023-02-28T20:07:15.782Z,7.30
2023-02-28T20:09:44.775Z,7.85
2023-02-28T20:12:23.633Z,7.62
2023-02-28T20:18:00.999Z,7.44
2023-02-28T20:20:29.414Z,7.82
2023-02-28T20:23:21.955Z,7.87
2023-02-28T20:25:51.619Z,7.40
2023-02-28T20:28:21.686Z,7.31
2023-02-28T20:30:52.786Z,7.37
2023-02-28T20:33:21.674Z,7.83
2023-02-28T20:36:00.401Z,7.36
2023-02-28T20:38:28.844Z,7.02
2023-02-28T20:40:57.103Z,7.26
2023-02-28T20:43:29.773Z,7.26
2023-02-28T20:46:01.738Z,7.45
2023-02-28T20:48:35.779Z,7.94
2023-02-28T20:51:10.785Z,7.71
2023-02-28T20:53:48.531Z,7.63
2023-02-28T20:56:27.988Z,7.74
2023-02-28T20:59:00.015Z,7.26
2023-02-28T21:01:35.957Z,7.55
2023-02-28T21:04:09.257Z,7.60
2023-02-28T21:06:43.253Z,7.25
2023-02-28T21:09:16.275Z,6.78
2023-02-28T21:11:44.942Z,6.71
2023-02-28T21:14:16.649Z,6.72
2023-02-28T21:16:45.656Z,6.74
2023-02-28T21:19:14.687Z,6.90
2023-02-28T21:21:45.279Z,7.02
2023-02-28T21:24:15.273Z,7.04
2023-02-28T21:26:49.591Z,6.99
2023-02-28T21:29:19.688Z,6.61
2023-02-28T21:32:53.995Z,7.10
2023-02-28T21:35:25.776Z,6.83
2023-02-28T21:37:55.836Z,6.80
2023-02-28T21:40:23.839Z,6.87
2023-02-28T21:42:52.290Z,7.24
2023-02-28T21:45:21.606Z,6.97
2023-02-28T21:47:49.451Z,7.25
2023-02-28T21:50:17.881Z,7.39
2023-02-28T21:52:46.117Z,7.38
2023-02-28T21:55:14.218Z,7.24
2023-02-28T21:57:42.214Z,7.19
2023-02-28T22:00:12.022Z,6.84
2023-02-28T22:02:44.420Z,6.53
2023-02-28T22:05:12.601Z,6.31
2023-02-28T22:07:42.052Z,6.17
2023-02-28T22:10:11.460Z,6.47
2023-02-28T22:12:39.366Z,6.35
2023-02-28T22:15:08.615Z,6.61
2023-02-28T22:17:36.485Z,6.31
2023-02-28T22:20:13.120Z,6.38
2023-02-28T22:22:41.406Z,6.28
2023-02-28T22:25:10.808Z,6.26
2023-02-28T22:27:38.707Z,6.35
2023-02-28T22:30:07.674Z,6.28
2023-02-28T22:32:36.489Z,6.26
2023-02-28T22:35:06.339Z,6.11
2023-02-28T22:37:34.362Z,6.18
2023-02-28T22:40:02.251Z,5.98
2023-02-28T22:42:33.215Z,5.75
2023-02-28T22:45:01.126Z,5.92
2023-02-28T22:47:28.951Z,5.79
2023-02-28T22:49:56.955Z,6.37
2023-02-28T22:52:26.328Z,6.66
2023-02-28T22:54:54.294Z,6.52
2023-02-28T22:57:22.345Z,5.99
2023-02-28T22:59:50.374Z,6.05
2023-02-28T23:02:18.488Z,6.16
2023-02-28T23:04:46.711Z,6.37
2023-02-28T23:07:15.397Z,6.00
2023-02-28T23:09:44.748Z,6.01
2023-02-28T23:12:12.777Z,5.95
2023-02-28T23:14:40.712Z,5.94
2023-02-28T23:17:08.595Z,6.00
2023-02-28T23:19:36.842Z,5.98
2023-02-28T23:22:05.516Z,5.94
2023-02-28T23:24:35.564Z,6.06
2023-02-28T23:27:07.061Z,6.18
2023-02-28T23:29:35.817Z,6.17
2023-02-28T23:32:05.637Z,5.78
2023-02-28T23:34:33.802Z,6.10
2023-02-28T23:37:03.273Z,6.01
2023-02-28T23:39:32.402Z,6.12
2023-02-28T23:42:02.018Z,5.76
2023-02-28T23:44:31.965Z,6.02
2023-02-28T23:47:00.845Z,5.80
2023-02-28T23:49:28.837Z,5.59
2023-02-28T23:51:57.683Z,5.98
2023-02-28T23:54:25.965Z,5.79
2023-02-28T23:56:54.109Z,6.02
2023-02-28T23:59:22.004Z,6.09
